createdAt,value
2022-11-19T00:01:14.339Z,6.17
2022-11-19T00:03:43.219Z,6.67
2022-11-19T00:06:15.896Z,6.63
2022-11-19T00:08:42.812Z,6.90
2022-11-19T00:11:12.114Z,6.57
2022-11-19T00:13:40.150Z,6.03
2022-11-19T00:16:13.017Z,7.60
2022-11-19T00:18:40.492Z,7.30
2022-11-19T00:21:09.899Z,6.87
2022-11-19T00:23:37.416Z,6.80
2022-11-19T00:26:10.021Z,6.80
2022-11-19T00:28:37.335Z,6.53
2022-11-19T00:31:06.822Z,11.27
2022-11-19T00:33:34.045Z,6.57
2022-11-19T00:36:01.757Z,6.57
2022-11-19T00:38:29.977Z,7.23
2022-11-19T00:40:56.992Z,6.60
2022-11-19T00:43:42.465Z,7.07
2022-11-19T00:46:09.794Z,7.57
2022-11-19T00:48:36.625Z,7.17
2022-11-19T00:51:03.460Z,7.60
2022-11-19T00:53:30.114Z,6.60
2022-11-19T00:56:01.565Z,7.07
2022-11-19T00:58:28.535Z,6.33
2022-11-19T01:00:55.559Z,8.33
2022-11-19T01:03:23.390Z,7.97
2022-11-19T01:05:50.140Z,6.50
2022-11-19T01:08:17.755Z,7.00
2022-11-19T01:10:45.422Z,8.27
2022-11-19T01:13:31.108Z,7.30
2022-11-19T01:15:57.805Z,7.20
2022-11-19T01:18:24.492Z,6.57
2022-11-19T01:20:51.179Z,6.57
2022-11-19T01:23:18.349Z,7.30
2022-11-19T01:25:45.395Z,7.47
2022-11-19T01:28:12.153Z,7.10
2022-11-19T01:30:43.411Z,7.17
2022-11-19T01:33:10.757Z,6.60
2022-11-19T01:35:38.090Z,6.90
2022-11-19T01:38:05.559Z,6.43
2022-11-19T01:40:32.924Z,6.77
2022-11-19T01:42:59.691Z,7.10
2022-11-19T01:45:43.155Z,6.80
2022-11-19T01:48:12.819Z,6.17
2022-11-19T01:50:44.651Z,6.47
2022-11-19T01:53:12.041Z,7.57
2022-11-19T01:55:40.641Z,7.40
2022-11-19T01:58:08.122Z,7.17
2022-11-19T02:00:35.048Z,6.97
2022-11-19T02:03:01.781Z,6.73
2022-11-19T02:05:29.015Z,7.03
2022-11-19T02:07:57.847Z,7.30
2022-11-19T02:10:47.561Z,7.50
2022-11-19T02:13:35.950Z,7.23
2022-11-19T02:16:14.887Z,7.13
2022-11-19T02:18:58.343Z,7.27
2022-11-19T02:21:37.923Z,7.03
2022-11-19T02:24:29.822Z,6.67
2022-11-19T02:27:35.121Z,7.60
2022-11-19T02:30:11.714Z,6.87
2022-11-19T02:32:47.794Z,7.10
2022-11-19T02:35:23.932Z,6.73
2022-11-19T02:38:05.093Z,6.43
2022-11-19T02:40:41.574Z,6.67
2022-11-19T02:43:26.354Z,7.17
2022-11-19T02:46:09.668Z,6.77
2022-11-19T02:48:41.947Z,6.47
2022-11-19T02:51:09.410Z,7.47
2022-11-19T02:53:36.175Z,6.93
2022-11-19T02:56:14.032Z,7.07
2022-11-19T02:59:09.228Z,7.27
2022-11-19T03:02:02.500Z,7.40
2022-11-19T03:04:30.798Z,7.83
2022-11-19T03:07:10.568Z,7.20
2022-11-19T03:09:42.730Z,6.07
2022-11-19T03:12:21.592Z,7.20
2022-11-19T03:15:37.869Z,6.77
2022-11-19T03:18:07.086Z,7.07
2022-11-19T03:20:40.552Z,7.03
2022-11-19T03:23:23.970Z,7.50
2022-11-19T03:25:56.579Z,7.33
2022-11-19T03:28:29.012Z,6.77
2022-11-19T03:30:59.708Z,7.13
2022-11-19T03:33:39.327Z,6.33
2022-11-19T03:36:10.949Z,7.43
2022-11-19T03:38:47.754Z,7.03
2022-11-19T03:41:17.696Z,7.13
2022-11-19T03:43:48.325Z,7.63
2022-11-19T03:46:17.881Z,7.73
2022-11-19T03:48:48.000Z,7.50
2022-11-19T03:51:28.346Z,7.70
2022-11-19T03:53:55.122Z,8.07
2022-11-19T03:56:26.214Z,8.00
2022-11-19T03:58:53.786Z,7.30
2022-11-19T04:01:21.614Z,6.53
2022-11-19T04:04:07.144Z,7.27
2022-11-19T04:06:33.916Z,6.83
2022-11-19T04:09:00.601Z,7.47
2022-11-19T04:13:52.837Z,7.43
2022-11-19T04:16:19.532Z,7.63
2022-11-19T04:18:46.282Z,7.20
2022-11-19T04:21:12.952Z,7.00
2022-11-19T04:23:39.620Z,8.00
2022-11-19T04:26:06.349Z,7.43
2022-11-19T04:28:33.011Z,7.63
2022-11-19T04:30:59.736Z,7.70
2022-11-19T04:33:26.404Z,8.50
2022-11-19T04:35:53.162Z,7.93
2022-11-19T04:38:19.946Z,7.30
2022-11-19T04:40:47.314Z,7.33
2022-11-19T04:43:14.014Z,6.70
2022-11-19T04:45:40.849Z,7.40
2022-11-19T04:48:07.736Z,7.53
2022-11-19T04:50:34.447Z,7.57
2022-11-19T04:53:01.117Z,7.03
2022-11-19T04:55:27.772Z,7.17
2022-11-19T04:57:54.437Z,8.53
2022-11-19T05:00:21.158Z,7.47
2022-11-19T05:02:47.817Z,7.63
2022-11-19T05:05:14.522Z,7.93
2022-11-19T05:07:41.328Z,7.13
2022-11-19T05:10:08.379Z,7.60
2022-11-19T05:12:35.100Z,8.30
2022-11-19T05:15:01.887Z,8.13
2022-11-19T05:17:28.558Z,8.23
2022-11-19T05:19:55.319Z,7.47
2022-11-19T05:22:22.124Z,7.87
2022-11-19T05:24:48.774Z,8.17
2022-11-19T05:27:15.652Z,7.47
2022-11-19T05:29:42.411Z,8.30
2022-11-19T05:32:09.197Z,7.60
2022-11-19T05:34:35.846Z,7.97
2022-11-19T05:37:02.588Z,8.37
2022-11-19T05:39:29.401Z,7.43
2022-11-19T05:41:56.069Z,8.73
2022-11-19T05:44:22.770Z,8.53
2022-11-19T05:46:49.572Z,8.87
2022-11-19T05:49:16.410Z,10.83
2022-11-19T05:51:43.280Z,15.73
2022-11-19T05:54:11.064Z,20.43
2022-11-19T05:56:37.786Z,20.60
2022-11-19T05:59:04.784Z,20.97
2022-11-19T06:01:32.208Z,20.90
2022-11-19T06:03:59.481Z,21.90
2022-11-19T06:06:27.079Z,24.07
2022-11-19T06:08:54.534Z,23.17
2022-11-19T06:11:40.411Z,25.63
2022-11-19T06:14:08.321Z,28.40
2022-11-19T06:16:35.668Z,23.00
2022-11-19T06:19:02.755Z,22.17
2022-11-19T06:21:29.868Z,24.80
2022-11-19T06:23:56.969Z,22.90
2022-11-19T06:26:25.149Z,20.37
2022-11-19T06:28:52.552Z,23.40
2022-11-19T06:31:20.047Z,27.80
2022-11-19T06:33:47.165Z,22.13
2022-11-19T06:36:14.496Z,22.80
2022-11-19T06:38:42.083Z,22.00
2022-11-19T06:41:09.151Z,23.60
2022-11-19T06:43:36.271Z,23.80
2022-11-19T06:46:03.513Z,22.20
2022-11-19T06:48:30.716Z,22.23
2022-11-19T06:50:57.954Z,22.23
2022-11-19T06:53:25.054Z,19.30
2022-11-19T06:55:59.072Z,16.83
2022-11-19T06:58:26.333Z,15.87
2022-11-19T07:00:53.739Z,16.57
2022-11-19T07:03:21.124Z,15.50
2022-11-19T07:05:48.682Z,17.13
2022-11-19T07:08:16.187Z,15.63
2022-11-19T07:10:43.856Z,13.40
2022-11-19T07:13:11.020Z,12.60
2022-11-19T07:15:38.224Z,15.23
2022-11-19T07:18:05.603Z,16.10
2022-11-19T07:20:32.811Z,11.73
2022-11-19T07:22:59.896Z,13.00
2022-11-19T07:25:27.381Z,13.83
2022-11-19T07:27:54.513Z,11.90
2022-11-19T07:30:21.629Z,11.97
2022-11-19T07:32:48.789Z,11.83
2022-11-19T07:35:15.955Z,10.83
2022-11-19T07:37:42.643Z,11.00
2022-11-19T07:40:11.086Z,10.70
2022-11-19T07:42:49.999Z,10.70
2022-11-19T07:45:18.481Z,11.60
2022-11-19T07:47:45.235Z,11.07
2022-11-19T07:50:12.334Z,11.80
2022-11-19T07:52:39.148Z,10.70
2022-11-19T07:55:07.124Z,9.90
2022-11-19T07:57:33.878Z,9.23
2022-11-19T08:00:00.684Z,9.07
2022-11-19T08:02:27.413Z,10.07
2022-11-19T08:04:54.150Z,9.93
2022-11-19T08:07:20.880Z,9.40
2022-11-19T08:09:47.577Z,9.73
2022-11-19T08:12:14.322Z,9.80
2022-11-19T08:14:40.994Z,9.77
2022-11-19T08:17:26.937Z,9.30
2022-11-19T08:19:53.848Z,9.17
2022-11-19T08:22:20.589Z,9.97
2022-11-19T08:24:47.257Z,8.77
2022-11-19T08:27:14.029Z,8.33
2022-11-19T08:29:40.725Z,9.60
2022-11-19T08:32:07.402Z,8.00
2022-11-19T08:34:34.313Z,8.17
2022-11-19T08:37:01.037Z,8.40
2022-11-19T08:39:27.991Z,8.67
2022-11-19T08:42:13.084Z,10.00
2022-11-19T08:44:39.771Z,7.80
2022-11-19T08:47:06.514Z,8.13
2022-11-19T08:49:33.200Z,9.00
2022-11-19T08:51:59.902Z,9.20
2022-11-19T08:54:26.662Z,9.80
2022-11-19T08:56:53.334Z,8.87
2022-11-19T08:59:21.861Z,9.90
2022-11-19T09:01:49.930Z,9.10
2022-11-19T09:04:17.527Z,7.33
2022-11-19T09:06:44.452Z,7.80
2022-11-19T09:09:11.517Z,7.93
2022-11-19T09:11:42.459Z,8.77
2022-11-19T09:14:09.887Z,8.57
2022-11-19T09:16:36.674Z,11.43
2022-11-19T09:19:03.456Z,9.07
2022-11-19T09:21:30.257Z,7.37
2022-11-19T09:23:56.912Z,8.60
2022-11-19T09:26:23.808Z,7.60
2022-11-19T09:28:50.943Z,7.53
2022-11-19T09:31:19.697Z,8.10
2022-11-19T09:33:50.037Z,7.70
2022-11-19T09:36:18.487Z,7.50
2022-11-19T09:38:46.003Z,6.60
2022-11-19T09:41:34.055Z,7.67
2022-11-19T09:44:19.473Z,6.67
2022-11-19T09:46:52.172Z,7.30
2022-11-19T09:49:32.164Z,7.17
2022-11-19T09:52:05.377Z,7.40
2022-11-19T09:54:33.127Z,7.30
2022-11-19T09:57:07.045Z,6.90
2022-11-19T09:59:38.305Z,7.13
2022-11-19T10:02:20.363Z,5.63
2022-11-19T10:04:48.740Z,6.83
2022-11-19T10:07:41.065Z,6.07
2022-11-19T10:10:22.586Z,7.27
2022-11-19T10:13:11.568Z,6.67
2022-11-19T10:15:44.228Z,6.30
2022-11-19T10:18:22.215Z,6.77
2022-11-19T10:21:06.909Z,6.30
2022-11-19T10:23:50.646Z,6.57
2022-11-19T10:26:22.582Z,6.97
2022-11-19T10:28:56.465Z,7.00
2022-11-19T10:31:38.921Z,6.60
2022-11-19T10:34:18.915Z,6.70
2022-11-19T10:36:55.930Z,6.03
2022-11-19T10:39:36.845Z,6.00
2022-11-19T10:42:11.793Z,6.13
2022-11-19T10:44:49.454Z,7.03
2022-11-19T10:47:26.088Z,8.03
2022-11-19T10:49:54.786Z,8.27
2022-11-19T10:52:31.672Z,7.00
2022-11-19T10:55:17.661Z,7.93
2022-11-19T10:57:46.616Z,7.90
2022-11-19T11:00:14.029Z,7.70
2022-11-19T11:02:52.466Z,8.70
2022-11-19T11:05:19.942Z,7.73
2022-11-19T11:07:58.289Z,7.97
2022-11-19T11:10:31.264Z,8.80
2022-11-19T11:13:33.473Z,8.03
2022-11-19T11:16:06.330Z,8.13
2022-11-19T11:18:33.294Z,10.47
2022-11-19T11:21:00.666Z,10.53
2022-11-19T11:23:31.050Z,14.53
2022-11-19T11:26:11.511Z,13.93
2022-11-19T11:28:55.662Z,16.70
2022-11-19T11:31:42.431Z,16.30
2022-11-19T11:34:29.298Z,24.70
2022-11-19T11:36:57.056Z,25.33
2022-11-19T11:39:34.505Z,24.00
2022-11-19T11:42:05.863Z,23.40
2022-11-19T11:44:35.788Z,23.27
2022-11-19T11:47:16.087Z,21.53
2022-11-19T11:49:49.507Z,22.20
2022-11-19T11:52:22.626Z,19.10
2022-11-19T11:55:13.463Z,22.10
2022-11-19T11:58:00.605Z,18.13
2022-11-19T12:00:38.909Z,17.50
2022-11-19T12:03:10.967Z,20.20
2022-11-19T12:06:11.542Z,17.83
2022-11-19T12:08:38.194Z,17.97
2022-11-19T12:11:27.272Z,18.60
2022-11-19T12:14:08.136Z,14.93
2022-11-19T12:17:12.798Z,14.87
2022-11-19T12:20:10.946Z,16.57
2022-11-19T12:22:40.489Z,16.60
2022-11-19T12:25:39.557Z,17.80
2022-11-19T12:28:36.588Z,17.10
2022-11-19T12:31:22.813Z,18.47
2022-11-19T12:34:08.852Z,14.57
2022-11-19T12:37:01.533Z,15.47
2022-11-19T12:39:59.941Z,14.30
2022-11-19T12:42:41.747Z,15.07
2022-11-19T12:45:42.205Z,10.90
2022-11-19T12:48:17.436Z,11.43
2022-11-19T12:51:04.618Z,10.50
2022-11-19T12:53:52.612Z,13.63
2022-11-19T12:56:24.973Z,15.37
2022-11-19T12:58:54.493Z,11.00
2022-11-19T13:01:28.254Z,12.37
2022-11-19T13:04:22.436Z,14.40
2022-11-19T13:07:01.487Z,11.70
2022-11-19T13:09:38.219Z,11.67
2022-11-19T13:12:10.976Z,9.63
2022-11-19T13:14:54.844Z,10.10
2022-11-19T13:17:30.690Z,15.47
2022-11-19T13:20:04.917Z,9.83
2022-11-19T13:22:37.689Z,9.47
2022-11-19T13:25:38.477Z,10.40
2022-11-19T13:28:12.953Z,9.20
2022-11-19T13:30:42.607Z,9.83
2022-11-19T13:33:24.904Z,10.40
2022-11-19T13:36:07.553Z,10.40
2022-11-19T13:38:49.029Z,8.60
2022-11-19T13:41:59.411Z,7.67
2022-11-19T13:44:41.605Z,9.10
2022-11-19T13:47:32.114Z,8.00
2022-11-19T13:50:35.559Z,8.67
2022-11-19T13:53:24.324Z,8.10
2022-11-19T13:55:56.334Z,7.60
2022-11-19T13:58:32.089Z,8.03
2022-11-19T14:01:08.527Z,7.47
2022-11-19T14:04:14.185Z,8.20
2022-11-19T14:07:02.711Z,7.17
2022-11-19T14:10:02.394Z,6.87
2022-11-19T14:12:50.949Z,7.00
2022-11-19T14:15:54.733Z,7.53
2022-11-19T14:18:54.531Z,9.17
2022-11-19T14:22:03.841Z,6.90
2022-11-19T14:24:49.138Z,6.20
2022-11-19T14:27:20.964Z,6.87
2022-11-19T14:29:47.590Z,6.53
2022-11-19T14:32:14.257Z,8.40
2022-11-19T14:34:42.692Z,7.40
2022-11-19T14:37:18.341Z,6.60
2022-11-19T14:39:54.616Z,6.57
2022-11-19T14:42:22.801Z,6.87
2022-11-19T14:45:01.426Z,6.10
2022-11-19T14:47:37.390Z,7.03
2022-11-19T14:50:21.056Z,5.90
2022-11-19T14:52:59.455Z,6.77
2022-11-19T14:55:30.439Z,7.17
2022-11-19T14:58:02.363Z,6.77
2022-11-19T15:00:42.840Z,6.50
2022-11-19T15:03:20.911Z,6.53
2022-11-19T15:05:48.000Z,5.37
2022-11-19T15:08:17.784Z,5.30
2022-11-19T15:11:09.203Z,6.57
2022-11-19T15:13:44.833Z,6.10
2022-11-19T15:16:22.178Z,6.60
2022-11-19T15:18:57.555Z,5.83
2022-11-19T15:21:50.473Z,5.37
2022-11-19T15:24:30.923Z,6.10
2022-11-19T15:27:22.188Z,7.30
2022-11-19T15:30:15.401Z,5.37
2022-11-19T15:33:03.215Z,6.93
2022-11-19T15:35:47.274Z,5.93
2022-11-19T15:38:19.706Z,5.20
2022-11-19T15:40:49.519Z,5.77
2022-11-19T15:43:40.979Z,5.30
2022-11-19T15:46:16.406Z,5.33
2022-11-19T15:48:54.573Z,5.37
2022-11-19T15:51:22.355Z,5.87
2022-11-19T15:54:06.227Z,5.37
2022-11-19T15:56:37.457Z,5.50
2022-11-19T15:59:07.218Z,7.00
2022-11-19T16:01:34.678Z,5.60
2022-11-19T16:04:10.063Z,5.40
2022-11-19T16:06:39.611Z,4.87
2022-11-19T16:09:06.380Z,5.47
2022-11-19T16:11:54.899Z,5.40
2022-11-19T16:14:45.456Z,5.93
2022-11-19T16:17:32.287Z,6.70
2022-11-19T16:20:20.395Z,7.30
2022-11-19T16:22:52.352Z,6.30
2022-11-19T16:25:29.846Z,6.80
2022-11-19T16:27:59.156Z,7.53
2022-11-19T16:30:28.396Z,6.73
2022-11-19T16:32:59.540Z,6.23
2022-11-19T16:35:31.911Z,6.53
2022-11-19T16:38:00.768Z,8.40
2022-11-19T16:40:48.672Z,6.90
2022-11-19T16:43:15.598Z,7.10
2022-11-19T16:45:45.713Z,5.93
2022-11-19T16:48:41.404Z,6.70
2022-11-19T16:51:35.993Z,5.33
2022-11-19T16:54:04.925Z,6.30
2022-11-19T16:56:43.888Z,6.03
2022-11-19T16:59:23.916Z,5.67
2022-11-19T17:02:00.074Z,6.57
2022-11-19T17:04:31.669Z,5.67
2022-11-19T17:06:59.235Z,6.43
2022-11-19T17:09:47.480Z,6.00
2022-11-19T17:12:29.205Z,5.23
2022-11-19T17:15:00.688Z,6.63
2022-11-19T17:17:40.443Z,6.80
2022-11-19T17:20:32.265Z,7.07
2022-11-19T17:23:00.326Z,6.07
2022-11-19T17:25:27.190Z,6.30
2022-11-19T17:27:59.205Z,7.47
2022-11-19T17:30:31.173Z,5.53
2022-11-19T17:33:03.727Z,5.23
2022-11-19T17:35:32.213Z,5.90
2022-11-19T17:38:29.887Z,5.53
2022-11-19T17:41:05.081Z,5.30
2022-11-19T17:43:56.336Z,6.63
2022-11-19T17:46:25.406Z,6.17
2022-11-19T17:48:53.890Z,5.00
2022-11-19T17:51:25.309Z,5.37
2022-11-19T17:53:53.241Z,5.13
2022-11-19T17:56:23.596Z,6.27
2022-11-19T17:58:50.435Z,5.53
2022-11-19T18:01:18.064Z,5.00
2022-11-19T18:03:45.130Z,5.40
2022-11-19T18:06:13.583Z,5.50
2022-11-19T18:08:42.026Z,4.83
2022-11-19T18:11:18.993Z,5.70
2022-11-19T18:13:47.687Z,5.20
2022-11-19T18:16:17.286Z,5.40
2022-11-19T18:18:44.052Z,5.30
2022-11-19T18:21:13.710Z,4.80
2022-11-19T18:23:41.515Z,4.73
2022-11-19T18:26:16.703Z,4.83
2022-11-19T18:28:48.611Z,5.30
2022-11-19T18:31:24.348Z,5.27
2022-11-19T18:33:51.063Z,5.57
2022-11-19T18:36:18.488Z,5.17
2022-11-19T18:38:45.487Z,5.50
2022-11-19T18:41:14.043Z,5.93
2022-11-19T18:43:59.543Z,5.40
2022-11-19T18:46:26.650Z,5.37
2022-11-19T18:48:56.400Z,5.40
2022-11-19T18:51:23.433Z,5.13
2022-11-19T18:53:50.210Z,6.20
2022-11-19T18:56:18.878Z,6.50
2022-11-19T18:58:46.030Z,7.50
2022-11-19T19:01:13.059Z,7.13
2022-11-19T19:03:40.041Z,7.03
2022-11-19T19:06:08.535Z,10.30
2022-11-19T19:08:36.218Z,7.30
2022-11-19T19:11:24.869Z,7.20
2022-11-19T19:13:52.354Z,6.70
2022-11-19T19:16:19.260Z,7.30
2022-11-19T19:18:46.046Z,7.60
2022-11-19T19:21:18.667Z,6.83
2022-11-19T19:23:45.519Z,6.43
2022-11-19T19:26:14.080Z,6.20
2022-11-19T19:28:40.892Z,6.47
2022-11-19T19:31:07.795Z,6.80
2022-11-19T19:33:34.887Z,6.40
2022-11-19T19:36:05.597Z,6.97
2022-11-19T19:38:32.696Z,7.00
2022-11-19T19:41:07.469Z,6.73
2022-11-19T19:43:34.495Z,6.10
2022-11-19T19:46:18.540Z,7.10
2022-11-19T19:48:51.760Z,6.20
2022-11-19T19:51:20.731Z,5.93
2022-11-19T19:53:48.517Z,6.37
2022-11-19T19:56:20.767Z,6.33
2022-11-19T19:58:48.470Z,5.60
2022-11-19T20:01:18.182Z,6.20
2022-11-19T20:03:46.592Z,5.83
2022-11-19T20:06:17.977Z,6.80
2022-11-19T20:08:45.013Z,6.27
2022-11-19T20:11:14.672Z,6.23
2022-11-19T20:14:59.834Z,5.60
2022-11-19T20:17:26.746Z,6.80
2022-11-19T20:19:53.561Z,6.57
2022-11-19T20:22:20.496Z,6.00
2022-11-19T20:24:47.274Z,6.37
2022-11-19T20:27:14.026Z,5.90
2022-11-19T20:29:40.844Z,5.87
2022-11-19T20:32:07.608Z,5.97
2022-11-19T20:34:34.815Z,6.03
2022-11-19T20:37:01.738Z,4.97
2022-11-19T20:39:28.525Z,5.53
2022-11-19T20:42:14.095Z,5.93
2022-11-19T20:44:40.917Z,5.47
2022-11-19T20:47:07.697Z,5.30
2022-11-19T20:49:38.113Z,6.03
2022-11-19T20:52:05.346Z,5.40
2022-11-19T20:54:32.724Z,5.20
2022-11-19T20:57:00.386Z,5.90
2022-11-19T20:59:28.079Z,5.53
2022-11-19T21:01:56.409Z,5.50
2022-11-19T21:04:25.087Z,6.57
2022-11-19T21:06:53.976Z,5.63
2022-11-19T21:09:21.804Z,5.60
2022-11-19T21:11:49.035Z,5.60
2022-11-19T21:14:15.956Z,5.53
2022-11-19T21:16:42.744Z,5.47
2022-11-19T21:19:10.732Z,5.50
2022-11-19T21:21:37.872Z,5.87
2022-11-19T21:24:05.072Z,5.03
2022-11-19T21:26:32.615Z,5.60
2022-11-19T21:29:00.170Z,4.97
2022-11-19T21:31:40.528Z,5.23
2022-11-19T21:34:13.644Z,6.80
2022-11-19T21:36:41.995Z,5.83
2022-11-19T21:39:09.509Z,5.20
2022-11-19T21:41:36.369Z,4.80
2022-11-19T21:44:05.073Z,5.63
2022-11-19T21:46:32.763Z,5.30
2022-11-19T21:48:59.679Z,5.67
2022-11-19T21:51:26.426Z,5.10
2022-11-19T21:53:55.244Z,5.13
2022-11-19T21:56:22.704Z,6.00
2022-11-19T21:58:49.475Z,5.30
2022-11-19T22:01:16.343Z,4.33
2022-11-19T22:03:43.281Z,5.00
2022-11-19T22:06:11.607Z,5.40
2022-11-19T22:08:40.657Z,5.13
2022-11-19T22:11:27.384Z,6.00
2022-11-19T22:13:55.003Z,4.90
2022-11-19T22:16:22.067Z,5.30
2022-11-19T22:18:48.872Z,5.97
2022-11-19T22:21:15.995Z,4.97
2022-11-19T22:23:43.042Z,5.47
2022-11-19T22:26:11.691Z,5.20
2022-11-19T22:28:39.267Z,5.17
2022-11-19T22:31:06.440Z,4.97
2022-11-19T22:33:35.474Z,4.97
2022-11-19T22:36:09.567Z,4.97
2022-11-19T22:38:38.588Z,5.67
2022-11-19T22:41:14.459Z,5.20
2022-11-19T22:43:42.469Z,5.10
2022-11-19T22:46:11.023Z,5.13
2022-11-19T22:48:38.195Z,4.93
2022-11-19T22:51:07.294Z,5.60
2022-11-19T22:53:35.552Z,12.53
2022-11-19T22:56:03.578Z,5.77
2022-11-19T22:58:30.474Z,5.20
2022-11-19T23:00:57.410Z,5.70
2022-11-19T23:03:24.256Z,6.07
2022-11-19T23:05:52.912Z,5.47
2022-11-19T23:08:20.658Z,4.90
2022-11-19T23:10:48.367Z,4.47
2022-11-19T23:13:31.927Z,5.13
2022-11-19T23:16:03.831Z,5.17
2022-11-19T23:18:33.852Z,4.90
2022-11-19T23:21:22.515Z,4.70
2022-11-19T23:23:49.886Z,4.23
2022-11-19T23:26:19.810Z,4.70
2022-11-19T23:28:46.557Z,4.73
2022-11-19T23:31:17.222Z,5.07
2022-11-19T23:33:44.886Z,5.20
2022-11-19T23:36:22.915Z,5.23
2022-11-19T23:38:49.804Z,5.17
2022-11-19T23:41:18.636Z,5.83
2022-11-19T23:43:46.218Z,5.03
2022-11-19T23:46:21.550Z,5.33
2022-11-19T23:48:49.617Z,4.97
2022-11-19T23:51:25.264Z,4.23
2022-11-19T23:53:52.706Z,5.67
2022-11-19T23:56:21.000Z,5.20
2022-11-19T23:58:48.255Z,4.93
